LEST/SCQ METAR and TAF weather

Enter ICAO airport designator
Station Type Date Time Source
LEST METAR 2023/02/05 14:30 UTC NOAA

LEST 051430Z 11007KT 070V150 CAVOK 13/04 Q1032 NOSIG


Station Type Date Time Source
LEST Decoded METAR 2023/02/05 14:30 UTC NOAA

Santiago / Labacolla, Spain (LEST) 42-54N 008-26W 367M
Feb 05, 2023 - 09:30 AM EST / 2023.02.05 1430 UTC
Wind: from the ESE (110 degrees) at 8 MPH (7 KT) (direction variable):0
Visibility: greater than 7 mile(s):0
Temperature: 55 F (13 C)
Dew Point: 39 F (4 C)
Relative Humidity: 54%
Pressure (altimeter): 30.47 in. Hg (1032 hPa)
ob: LEST 051430Z 11007KT 070V150 CAVOK 13/04 Q1032 NOSIG
cycle: 14

Station Type Date Time Source
LEST TAF 2023/02/05 12:27 UTC NOAA

TAF LEST 051100Z 0512/0612 08008KT CAVOK TX14/0515Z TN00/0607Z PROB30
TEMPO 0520/0609 3000 BR BCFG BKN005 PROB30
TEMPO 0522/0608 0350 FG VV001

Example: see airport list